Startpagina
METAR-TAF:

METAR-TAF

Vliegvelden :

Aéroport de Paris-Beauvais-Tillé

Beauvais, Frankrijk

breedte: 49-28N, lengte: 002-07E, hoogte: 109 m

Actueel weer

Dit bericht is 23 minuten geleden gemaakt, om 19:30 UTC
Wind 6 kt uit het oosten
Temperatuur 5°C
Vochtigheid 100%
Druk 1025 hPa
Zicht: 1300 m
nevel

METAR: LFOB 161930Z AUTO 10006KT 1800 1300 R30/1900D R12/1700D BR VV/// 05/05 Q1025 BECMG 3000 BR NSC

Tijdstip: 20:53 (19:53 UTC)

Verwachting

Dit bericht is 2 uur en het 53 minuten geleden gemaakt, om 17:00 UTC
Verwachting geldig van 16 om 18 UTC tot 17 om 18 UTC
Wind 5 kt uit het oosten
Zicht: 0500 m
mist
Wijzigt naar
van 16 om 19 UTC tot 16 om 21 UTC
Zicht: 3000 m
Geheel bewolkt op 300 ft
nevel
Wijzigt naar
van 16 om 21 UTC tot 16 om 23 UTC
Wijzigt naar
van 17 om 02 UTC tot 17 om 04 UTC
Zicht 10 km of meer

TAF: LFOB 161700Z 1618/1718 10005KT 0500 FG VV/// BECMG 1619/1621 3000 BR OVC003 BECMG 1621/1623 NSC BECMG 1702/1704 9999 NSW

Waarnemingen en weersverwachtingen van meer dan 4000 vliegvelden (METAR en TAF).

De beschikbare stations zijn de gele en rode punten op de kaart.

Ga met uw muis naar het station om de naam te zien.

Klik dan om waarnemingen en weersverwachtingen te zien.

kaart wijzigen: klik op de groene knoppen met een zwart kruis om in te zoomen, op de groene knop met een streepje om uit te zoomen of op de groene pijlen voor aangrenzende kaarten.


METAR-TAF: